createdAt,value
2022-11-28T00:01:30.347Z,100943.34
2022-11-28T00:03:58.060Z,100942.31
2022-11-28T00:06:28.020Z,100942.84
2022-11-28T00:08:56.464Z,100946.00
2022-11-28T00:11:23.970Z,100934.97
2022-11-28T00:13:51.869Z,100937.59
2022-11-28T00:16:21.733Z,100932.88
2022-11-28T00:18:50.234Z,100923.94
2022-11-28T00:21:18.210Z,100923.69
2022-11-28T00:23:48.507Z,100930.28
2022-11-28T00:26:18.395Z,100924.22
2022-11-28T00:28:46.200Z,100923.72
2022-11-28T00:31:14.944Z,100918.44
2022-11-28T00:33:42.934Z,100922.41
2022-11-28T00:36:11.740Z,100919.50
2022-11-28T00:38:39.441Z,100908.97
2022-11-28T00:41:10.877Z,100912.94
2022-11-28T00:43:38.841Z,100897.16
2022-11-28T00:46:07.295Z,100910.84
2022-11-28T00:48:36.295Z,100906.38
2022-11-28T00:51:07.984Z,100900.84
2022-11-28T00:53:35.919Z,100910.59
2022-11-28T00:56:05.406Z,100891.91
2022-11-28T00:58:35.004Z,100895.34
2022-11-28T01:01:09.559Z,100894.53
2022-11-28T01:03:37.509Z,100884.81
2022-11-28T01:06:05.853Z,100893.47
2022-11-28T01:08:33.473Z,100894.25
2022-11-28T01:11:01.332Z,100882.69
2022-11-28T01:13:28.952Z,100881.91
2022-11-28T01:15:58.687Z,100878.25
2022-11-28T01:18:26.378Z,100866.91
2022-11-28T01:20:54.066Z,100870.88
2022-11-28T01:23:21.825Z,100874.03
2022-11-28T01:25:49.546Z,100875.59
2022-11-28T01:28:17.221Z,100864.81
2022-11-28T01:30:44.843Z,100854.03
2022-11-28T01:33:13.879Z,100861.69
2022-11-28T01:35:41.629Z,100864.56
2022-11-28T01:38:09.363Z,100871.41
2022-11-28T01:40:37.007Z,100864.06
2022-11-28T01:43:04.690Z,100864.06
2022-11-28T01:45:33.620Z,100871.44
2022-11-28T01:48:03.899Z,100865.66
2022-11-28T01:50:36.140Z,100859.31
2022-11-28T01:53:07.495Z,100870.38
2022-11-28T01:55:44.499Z,100864.31
2022-11-28T01:58:13.808Z,100866.72
2022-11-28T02:00:41.487Z,100865.91
2022-11-28T02:03:13.100Z,100859.06
2022-11-28T02:05:42.240Z,100861.97
2022-11-28T02:08:11.083Z,100864.09
2022-11-28T02:10:53.800Z,100858.56
2022-11-28T02:13:36.790Z,100851.19
2022-11-28T02:16:39.308Z,100852.75
2022-11-28T02:19:35.067Z,100847.75
2022-11-28T02:22:13.352Z,100847.75
2022-11-28T02:24:57.757Z,100850.09
2022-11-28T02:28:00.195Z,100848.28
2022-11-28T02:30:31.294Z,100855.66
2022-11-28T02:33:13.705Z,100846.69
2022-11-28T02:35:47.724Z,100846.44
2022-11-28T02:38:22.876Z,100851.44
2022-11-28T02:40:58.928Z,100843.00
2022-11-28T02:43:35.827Z,100844.84
2022-11-28T02:46:11.571Z,100843.00
2022-11-28T02:48:47.732Z,100844.59
2022-11-28T02:51:22.028Z,100843.00
2022-11-28T02:53:51.891Z,100841.97
2022-11-28T02:56:19.632Z,100845.63
2022-11-28T02:58:47.244Z,100847.75
2022-11-28T03:01:20.369Z,100846.16
2022-11-28T03:03:59.448Z,100846.44
2022-11-28T03:06:35.243Z,100845.63
2022-11-28T03:09:27.435Z,100845.38
2022-11-28T03:12:05.019Z,100845.63
2022-11-28T03:14:46.920Z,100835.09
2022-11-28T03:17:21.784Z,100838.81
2022-11-28T03:20:00.414Z,100845.63
2022-11-28T03:22:34.004Z,100833.53
2022-11-28T03:25:09.141Z,100833.00
2022-11-28T03:27:40.584Z,100835.66
2022-11-28T03:30:15.100Z,100846.19
2022-11-28T03:32:47.035Z,100840.13
2022-11-28T03:35:20.467Z,100833.78
2022-11-28T03:37:52.285Z,100848.03
2022-11-28T03:40:24.511Z,100848.25
2022-11-28T03:42:58.358Z,100844.59
2022-11-28T03:45:29.720Z,100844.59
2022-11-28T03:48:01.931Z,100837.72
2022-11-28T03:50:42.484Z,100837.72
2022-11-28T03:53:14.635Z,100844.59
2022-11-28T03:55:49.174Z,100844.59
2022-11-28T03:58:27.163Z,100849.84
2022-11-28T04:01:04.759Z,100845.63
2022-11-28T04:03:42.020Z,100851.44
2022-11-28T04:06:17.726Z,100855.13
2022-11-28T04:08:50.632Z,100865.94
2022-11-28T04:11:21.595Z,100849.34
2022-11-28T04:13:55.452Z,100845.63
2022-11-28T04:16:27.334Z,100848.25
2022-11-28T04:19:00.814Z,100843.78
2022-11-28T04:21:33.982Z,100852.50
2022-11-28T04:24:06.818Z,100849.84
2022-11-28T04:26:37.136Z,100855.13
2022-11-28T04:29:09.036Z,100856.72
2022-11-28T04:31:37.830Z,100851.44
2022-11-28T04:34:08.907Z,100857.75
2022-11-28T04:36:40.801Z,100848.25
2022-11-28T04:39:15.534Z,100850.66
2022-11-28T04:41:50.207Z,100848.25
2022-11-28T04:44:22.503Z,100855.13
2022-11-28T04:46:54.953Z,100853.53
2022-11-28T04:49:24.070Z,100852.50
2022-11-28T04:52:00.217Z,100844.88
2022-11-28T04:54:33.657Z,100856.97
2022-11-28T04:57:04.631Z,100861.44
2022-11-28T04:59:33.607Z,100862.22
2022-11-28T05:02:05.437Z,100849.84
2022-11-28T05:04:36.670Z,100857.75
2022-11-28T05:07:07.500Z,100854.34
2022-11-28T05:09:35.674Z,100863.03
2022-11-28T05:12:03.166Z,100857.75
2022-11-28T05:14:30.833Z,100863.31
2022-11-28T05:16:58.545Z,100862.50
2022-11-28T05:19:26.186Z,100869.34
2022-11-28T05:21:54.183Z,100867.78
2022-11-28T05:24:24.882Z,100866.97
2022-11-28T05:26:55.601Z,100871.22
2022-11-28T05:29:24.836Z,100878.31
2022-11-28T05:31:52.522Z,100880.94
2022-11-28T05:34:20.253Z,100875.16
2022-11-28T05:36:47.932Z,100883.81
2022-11-28T05:39:15.556Z,100878.31
2022-11-28T05:41:44.547Z,100882.00
2022-11-28T05:44:12.181Z,100889.88
2022-11-28T05:46:39.821Z,100880.41
2022-11-28T05:49:07.466Z,100882.25
2022-11-28T05:51:35.092Z,100882.00
2022-11-28T05:54:02.876Z,100885.41
2022-11-28T05:56:30.532Z,100877.50
2022-11-28T05:58:59.568Z,100882.78
2022-11-28T06:01:29.105Z,100880.94
2022-11-28T06:04:00.685Z,100885.94
2022-11-28T06:06:30.639Z,100890.41
2022-11-28T06:08:58.938Z,100887.00
2022-11-28T06:11:28.523Z,100890.41
2022-11-28T06:13:56.813Z,100894.91
2022-11-28T06:16:27.233Z,100894.13
2022-11-28T06:18:56.462Z,100884.38
2022-11-28T06:21:24.629Z,100887.00
2022-11-28T06:23:52.898Z,100890.41
2022-11-28T06:26:22.083Z,100894.38
2022-11-28T06:28:50.136Z,100895.16
2022-11-28T06:31:20.529Z,100890.97
2022-11-28T06:33:50.055Z,100898.88
2022-11-28T06:36:19.315Z,100899.38
2022-11-28T06:38:47.490Z,100894.13
2022-11-28T06:41:16.114Z,100899.13
2022-11-28T06:43:43.850Z,100901.47
2022-11-28T06:46:15.999Z,100903.59
2022-11-28T06:48:44.205Z,100904.66
2022-11-28T06:51:13.805Z,100907.28
2022-11-28T06:53:41.876Z,100906.22
2022-11-28T06:56:11.363Z,100914.13
2022-11-28T06:58:39.090Z,100913.09
2022-11-28T07:01:08.631Z,100913.88
2022-11-28T07:03:36.663Z,100915.72
2022-11-28T07:06:05.441Z,100916.50
2022-11-28T07:08:35.042Z,100921.78
2022-11-28T07:11:09.374Z,100920.47
2022-11-28T07:13:37.143Z,100922.03
2022-11-28T07:16:05.351Z,100922.03
2022-11-28T07:18:33.281Z,100933.09
2022-11-28T07:21:01.104Z,100927.31
2022-11-28T07:23:28.798Z,100925.19
2022-11-28T07:26:00.825Z,100926.00
2022-11-28T07:28:29.219Z,100927.59
2022-11-28T07:31:01.882Z,100928.34
2022-11-28T07:33:29.988Z,100936.25
2022-11-28T07:36:01.640Z,100932.06
2022-11-28T07:38:29.461Z,100932.84
2022-11-28T07:41:03.019Z,100934.69
2022-11-28T07:43:32.244Z,100943.41
2022-11-28T07:46:01.540Z,100940.50
2022-11-28T07:48:29.514Z,100948.38
2022-11-28T07:50:57.213Z,100946.56
2022-11-28T07:53:24.944Z,100952.63
2022-11-28T07:55:52.597Z,100951.81
2022-11-28T07:58:22.080Z,100947.34
2022-11-28T08:00:51.103Z,100944.72
2022-11-28T08:03:18.695Z,100951.56
2022-11-28T08:05:49.513Z,100959.47
2022-11-28T08:08:17.463Z,100950.75
2022-11-28T08:10:45.581Z,100954.97
2022-11-28T08:13:14.447Z,100953.91
2022-11-28T08:15:42.255Z,100945.25
2022-11-28T08:18:11.286Z,100949.97
2022-11-28T08:20:38.984Z,100948.91
2022-11-28T08:23:06.602Z,100950.25
2022-11-28T08:25:34.535Z,100956.84
2022-11-28T08:28:02.260Z,100961.03
2022-11-28T08:30:30.148Z,100974.75
2022-11-28T08:32:59.269Z,100970.25
2022-11-28T08:35:28.323Z,100970.00
2022-11-28T08:38:00.458Z,100972.09
2022-11-28T08:40:29.356Z,100969.47
2022-11-28T08:42:56.954Z,100974.50
2022-11-28T08:45:24.622Z,100977.91
2022-11-28T08:47:52.623Z,100972.38
2022-11-28T08:50:20.440Z,100986.09
2022-11-28T08:52:49.975Z,100976.84
2022-11-28T08:55:20.974Z,100977.38
2022-11-28T08:57:51.288Z,100977.91
2022-11-28T09:00:20.240Z,100976.88
2022-11-28T09:02:47.924Z,100971.59
2022-11-28T09:05:15.639Z,100983.69
2022-11-28T09:07:43.380Z,100986.84
2022-11-28T09:10:12.723Z,100990.06
2022-11-28T09:12:40.439Z,100985.31
2022-11-28T09:15:09.269Z,100983.97
2022-11-28T09:17:36.908Z,100988.97
2022-11-28T09:20:05.465Z,100990.03
2022-11-28T09:22:33.191Z,100990.56
2022-11-28T09:25:00.911Z,100981.59
2022-11-28T09:27:29.978Z,100996.09
2022-11-28T09:29:57.642Z,100998.47
2022-11-28T09:32:25.343Z,100992.94
2022-11-28T09:34:52.968Z,100990.81
2022-11-28T09:37:20.569Z,100997.69
2022-11-28T09:40:11.532Z,100993.97
2022-11-28T09:42:41.850Z,100992.94
2022-11-28T09:45:14.658Z,100999.78
2022-11-28T09:47:45.760Z,100998.47
2022-11-28T09:50:16.798Z,101002.94
2022-11-28T09:52:53.103Z,101008.47
2022-11-28T09:55:30.530Z,100998.44
2022-11-28T09:58:03.859Z,100997.41
2022-11-28T10:00:36.034Z,101000.59
2022-11-28T10:03:35.801Z,100997.97
2022-11-28T10:06:14.155Z,101000.59
2022-11-28T10:09:03.961Z,100997.41
2022-11-28T10:11:45.519Z,101007.72
2022-11-28T10:14:41.828Z,101007.44
2022-11-28T10:17:21.215Z,101013.22
2022-11-28T10:19:55.508Z,101013.75
2022-11-28T10:22:34.995Z,101010.59
2022-11-28T10:25:08.224Z,101006.13
2022-11-28T10:27:36.994Z,101009.53
2022-11-28T10:30:11.032Z,101003.47
2022-11-28T10:32:42.085Z,101006.91
2022-11-28T10:35:28.708Z,101006.34
2022-11-28T10:37:56.743Z,101009.53
2022-11-28T10:40:35.334Z,101003.47
2022-11-28T10:43:07.579Z,101001.88
2022-11-28T10:45:47.889Z,100996.06
2022-11-28T10:48:41.262Z,101003.19
2022-11-28T10:51:21.784Z,101010.56
2022-11-28T10:54:00.367Z,101007.38
2022-11-28T10:56:38.035Z,101010.53
2022-11-28T10:59:15.013Z,101008.97
2022-11-28T11:01:48.787Z,101009.47
2022-11-28T11:04:21.126Z,100998.41
2022-11-28T11:07:09.151Z,101004.44
2022-11-28T11:09:40.638Z,101009.47
2022-11-28T11:12:13.947Z,101001.03
2022-11-28T11:14:41.588Z,101011.03
2022-11-28T11:17:28.091Z,101004.69
2022-11-28T11:19:59.169Z,101007.06
2022-11-28T11:22:31.563Z,101009.44
2022-11-28T11:25:07.816Z,101010.72
2022-11-28T11:27:37.702Z,101008.63
2022-11-28T11:30:18.612Z,101015.25
2022-11-28T11:32:51.555Z,101017.59
2022-11-28T11:35:24.519Z,101025.53
2022-11-28T11:37:52.651Z,101025.25
2022-11-28T11:40:23.213Z,101021.56
2022-11-28T11:42:53.868Z,101027.88
2022-11-28T11:45:33.376Z,101017.31
2022-11-28T11:48:04.678Z,101013.63
2022-11-28T11:50:33.355Z,101019.13
2022-11-28T11:53:03.217Z,101018.88
2022-11-28T11:55:32.812Z,101023.09
2022-11-28T11:58:05.908Z,101037.63
2022-11-28T12:00:38.746Z,101034.44
2022-11-28T12:03:16.066Z,101028.88
2022-11-28T12:06:13.328Z,101023.34
2022-11-28T12:08:44.622Z,101029.13
2022-11-28T12:11:17.607Z,101025.94
2022-11-28T12:13:45.523Z,101032.53
2022-11-28T12:16:34.124Z,101023.28
2022-11-28T12:19:13.311Z,101020.09
2022-11-28T12:21:47.573Z,101026.69
2022-11-28T12:24:17.535Z,101029.06
2022-11-28T12:26:48.906Z,101021.13
2022-11-28T12:29:36.519Z,101024.28
2022-11-28T12:32:19.263Z,101021.91
2022-11-28T12:35:04.727Z,101026.66
2022-11-28T12:38:12.446Z,101030.06
2022-11-28T12:40:37.130Z,101024.78
2022-11-28T12:43:18.029Z,101031.94
2022-11-28T12:45:52.561Z,101029.00
2022-11-28T12:48:35.043Z,101023.72
2022-11-28T12:51:17.954Z,101024.25
2022-11-28T12:54:01.164Z,101022.09
2022-11-28T12:56:48.653Z,101025.25
2022-11-28T12:59:25.888Z,101023.94
2022-11-28T13:02:09.458Z,101017.59
2022-11-28T13:05:04.511Z,101021.81
2022-11-28T13:07:44.149Z,101016.50
2022-11-28T13:10:18.012Z,101021.03
2022-11-28T13:12:55.552Z,101020.25
2022-11-28T13:15:41.793Z,101017.59
2022-11-28T13:18:21.890Z,101031.31
2022-11-28T13:20:56.856Z,101037.66
2022-11-28T13:23:32.496Z,101035.56
2022-11-28T13:26:06.496Z,101026.56
2022-11-28T13:28:39.653Z,101032.34
2022-11-28T13:31:28.491Z,101034.47
2022-11-28T13:33:57.390Z,101036.56
2022-11-28T13:39:33.958Z,101037.06
2022-11-28T13:45:03.764Z,101042.34
2022-11-28T13:47:35.074Z,101042.88
2022-11-28T13:50:39.457Z,101050.00
2022-11-28T13:53:26.479Z,101052.94
2022-11-28T13:56:26.349Z,101054.50
2022-11-28T13:58:56.952Z,101061.38
2022-11-28T14:01:26.869Z,101052.94
2022-11-28T14:04:09.554Z,101049.50
2022-11-28T14:06:44.606Z,101062.44
2022-11-28T14:09:29.188Z,101061.38
2022-11-28T14:12:09.092Z,101077.25
2022-11-28T14:15:18.113Z,101078.84
2022-11-28T14:18:02.196Z,101075.91
2022-11-28T14:20:38.005Z,101085.44
2022-11-28T14:23:22.640Z,101083.56
2022-11-28T14:25:52.370Z,101080.91
2022-11-28T14:28:25.900Z,101075.38
2022-11-28T14:31:02.842Z,101088.03
2022-11-28T14:33:35.826Z,101088.53
2022-11-28T14:36:35.057Z,101090.91
2022-11-28T14:39:20.231Z,101096.22
2022-11-28T14:42:52.031Z,101103.06
2022-11-28T14:45:47.171Z,101098.84
2022-11-28T14:48:30.007Z,101091.97
2022-11-28T14:51:01.640Z,101087.75
2022-11-28T14:53:45.163Z,101094.63
2022-11-28T14:56:24.641Z,101099.09
2022-11-28T14:58:56.378Z,101088.28
2022-11-28T15:01:40.943Z,101098.06
2022-11-28T15:04:28.987Z,101097.00
2022-11-28T15:06:57.060Z,101100.69
2022-11-28T15:09:28.207Z,101087.75
2022-11-28T15:12:11.446Z,101097.25
2022-11-28T15:14:39.916Z,101103.63
2022-11-28T15:17:12.925Z,101101.53
2022-11-28T15:19:46.709Z,101104.16
2022-11-28T15:22:30.195Z,101103.38
2022-11-28T15:24:57.881Z,101107.84
2022-11-28T15:27:27.359Z,101114.22
2022-11-28T15:29:57.264Z,101111.59
2022-11-28T15:32:26.847Z,101122.16
2022-11-28T15:35:00.574Z,101121.88
2022-11-28T15:37:31.053Z,101113.16
2022-11-28T15:40:00.239Z,101116.88
2022-11-28T15:42:30.449Z,101121.34
2022-11-28T15:45:04.309Z,101113.16
2022-11-28T15:47:32.138Z,101123.72
2022-11-28T15:50:03.588Z,101128.25
2022-11-28T15:52:31.975Z,101134.03
2022-11-28T15:54:59.747Z,101141.19
2022-11-28T15:57:30.563Z,101143.81
2022-11-28T15:59:58.318Z,101142.22
2022-11-28T16:02:30.943Z,101143.81
2022-11-28T16:05:05.837Z,101144.88
2022-11-28T16:07:37.839Z,101141.19
2022-11-28T16:10:18.965Z,101136.94
2022-11-28T16:12:46.859Z,101144.88
2022-11-28T16:15:18.945Z,101144.09
2022-11-28T16:17:46.824Z,101147.50
2022-11-28T16:20:24.333Z,101155.44
2022-11-28T16:22:59.417Z,101157.56
2022-11-28T16:25:28.576Z,101168.44
2022-11-28T16:27:57.528Z,101169.47
2022-11-28T16:30:33.375Z,101166.06
2022-11-28T16:33:01.118Z,101177.41
2022-11-28T16:35:33.792Z,101169.47
2022-11-28T16:38:06.180Z,101171.06
2022-11-28T16:40:34.027Z,101184.00
2022-11-28T16:43:04.886Z,101184.53
2022-11-28T16:45:34.304Z,101179.00
2022-11-28T16:48:09.415Z,101182.16
2022-11-28T16:50:38.815Z,101182.16
2022-11-28T16:53:06.663Z,101181.34
2022-11-28T16:55:47.536Z,101191.69
2022-11-28T16:58:18.094Z,101188.25
2022-11-28T17:00:51.719Z,101194.06
2022-11-28T17:03:45.681Z,101189.56
2022-11-28T17:06:18.945Z,101190.38
2022-11-28T17:08:46.913Z,101199.34
2022-11-28T17:11:19.833Z,101200.16
2022-11-28T17:13:47.865Z,101203.59
2022-11-28T17:16:17.476Z,101205.72
2022-11-28T17:18:45.547Z,101206.50
2022-11-28T17:21:13.978Z,101217.63
2022-11-28T17:23:43.566Z,101216.03
2022-11-28T17:26:11.842Z,101216.81
2022-11-28T17:28:40.008Z,101215.22
2022-11-28T17:31:07.806Z,101215.78
2022-11-28T17:33:37.508Z,101216.56
2022-11-28T17:36:10.718Z,101219.47
2022-11-28T17:38:38.357Z,101221.09
2022-11-28T17:41:08.949Z,101224.78
2022-11-28T17:43:39.283Z,101223.22
2022-11-28T17:46:07.621Z,101215.81
2022-11-28T17:48:35.287Z,101225.59
2022-11-28T17:51:03.663Z,101228.50
2022-11-28T17:53:31.415Z,101235.38
2022-11-28T17:55:59.933Z,101239.38
2022-11-28T17:58:29.198Z,101232.75
2022-11-28T18:01:00.828Z,101239.09
2022-11-28T18:03:29.958Z,101238.56
2022-11-28T18:05:57.597Z,101239.38
2022-11-28T18:08:25.286Z,101242.03
2022-11-28T18:11:03.643Z,101247.56
2022-11-28T18:13:33.083Z,101238.34
2022-11-28T18:16:00.802Z,101243.63
2022-11-28T18:18:28.800Z,101239.91
2022-11-28T18:20:56.875Z,101245.97
2022-11-28T18:23:24.344Z,101248.63
2022-11-28T18:25:52.021Z,101239.91
2022-11-28T18:28:20.432Z,101250.75
2022-11-28T18:30:49.853Z,101248.91
2022-11-28T18:33:18.363Z,101254.97
2022-11-28T18:35:46.075Z,101247.34
2022-11-28T18:38:13.708Z,101249.16
2022-11-28T18:40:41.339Z,101247.56
2022-11-28T18:43:08.970Z,101253.94
2022-11-28T18:45:36.657Z,101257.88
2022-11-28T18:48:05.904Z,101253.13
2022-11-28T18:50:35.553Z,101263.44
2022-11-28T18:53:03.232Z,101265.03
2022-11-28T18:55:30.943Z,101265.25
2022-11-28T18:57:59.306Z,101271.31
2022-11-28T19:00:27.138Z,101270.00
2022-11-28T19:02:55.855Z,101275.00
2022-11-28T19:05:24.838Z,101278.16
2022-11-28T19:07:52.574Z,101278.16
2022-11-28T19:10:20.322Z,101277.13
2022-11-28T19:12:47.974Z,101273.97
2022-11-28T19:15:15.789Z,101275.53
2022-11-28T19:17:43.448Z,101278.69
2022-11-28T19:20:12.056Z,101287.16
2022-11-28T19:22:41.085Z,101281.59
2022-11-28T19:25:09.633Z,101278.16
2022-11-28T19:27:37.454Z,101283.97
2022-11-28T19:30:05.731Z,101281.09
2022-11-28T19:32:33.407Z,101289.00
2022-11-28T19:35:01.012Z,101292.41
2022-11-28T19:37:28.690Z,101296.94
2022-11-28T19:40:02.361Z,101292.41
2022-11-28T19:42:30.753Z,101287.94
2022-11-28T19:44:58.413Z,101286.91
2022-11-28T19:47:26.064Z,101285.59
2022-11-28T19:49:53.729Z,101289.78
2022-11-28T19:52:21.377Z,101294.84
2022-11-28T19:54:49.039Z,101298.00
2022-11-28T19:57:18.450Z,101296.16
2022-11-28T19:59:46.376Z,101305.91
2022-11-28T20:02:14.178Z,101303.00
2022-11-28T20:04:43.412Z,101307.47
2022-11-28T20:07:11.089Z,101314.06
2022-11-28T20:09:38.759Z,101314.06
2022-11-28T20:12:06.935Z,101324.63
2022-11-28T20:14:35.918Z,101316.72
2022-11-28T20:17:03.580Z,101323.31
2022-11-28T20:19:31.226Z,101320.13
2022-11-28T20:21:59.108Z,101322.00
2022-11-28T20:24:26.863Z,101315.94
2022-11-28T20:26:56.850Z,101314.34
2022-11-28T20:29:26.827Z,101315.13
2022-11-28T20:31:57.154Z,101322.78
2022-11-28T20:34:25.586Z,101332.00
2022-11-28T20:36:53.806Z,101331.47
2022-11-28T20:39:21.783Z,101326.47
2022-11-28T20:41:49.419Z,101335.69
2022-11-28T20:44:17.639Z,101344.66
2022-11-28T20:46:46.411Z,101343.09
2022-11-28T20:49:15.706Z,101343.09
2022-11-28T20:51:43.400Z,101345.19
2022-11-28T20:54:12.976Z,101352.03
2022-11-28T20:57:12.814Z,101343.59
2022-11-28T20:59:30.651Z,101348.34
2022-11-28T21:01:58.409Z,101351.78
2022-11-28T21:04:27.464Z,101349.91
2022-11-28T21:06:55.135Z,101360.19
2022-11-28T21:09:22.774Z,101353.56
2022-11-28T21:11:57.577Z,101356.75
2022-11-28T21:14:26.917Z,101361.47
2022-11-28T21:16:55.282Z,101357.78
2022-11-28T21:19:23.017Z,101362.53
2022-11-28T21:21:52.167Z,101360.41
2022-11-28T21:24:20.075Z,101361.19
2022-11-28T21:26:52.934Z,101366.75
2022-11-28T21:29:21.543Z,101363.06
2022-11-28T21:31:49.404Z,101371.78
2022-11-28T21:34:19.017Z,101369.94
2022-11-28T21:36:47.044Z,101377.31
2022-11-28T21:39:18.625Z,101371.28
2022-11-28T21:41:46.664Z,101375.47
2022-11-28T21:44:14.356Z,101378.66
2022-11-28T21:46:42.095Z,101386.88
2022-11-28T21:49:09.790Z,101374.44
2022-11-28T21:51:37.406Z,101376.03
2022-11-28T21:54:05.304Z,101373.13
2022-11-28T21:56:34.373Z,101380.53
2022-11-28T21:59:02.077Z,101379.22
2022-11-28T22:01:29.771Z,101379.22
2022-11-28T22:04:02.146Z,101391.13
2022-11-28T22:06:31.001Z,101386.88
2022-11-28T22:08:58.819Z,101387.44
2022-11-28T22:11:26.579Z,101380.56
2022-11-28T22:14:01.821Z,101390.09
2022-11-28T22:16:30.509Z,101392.72
2022-11-28T22:19:00.557Z,101396.41
2022-11-28T22:21:51.982Z,101401.69
2022-11-28T22:24:16.369Z,101401.69
2022-11-28T22:26:43.999Z,101398.53
2022-11-28T22:29:13.220Z,101395.91
2022-11-28T22:31:40.985Z,101401.69
2022-11-28T22:34:09.402Z,101394.59
2022-11-28T22:36:37.037Z,101404.88
2022-11-28T22:39:04.721Z,101408.56
2022-11-28T22:41:32.411Z,101405.66
2022-11-28T22:44:02.178Z,101401.72
2022-11-28T22:46:32.258Z,101417.03
2022-11-28T22:49:00.624Z,101416.50
2022-11-28T22:51:29.338Z,101414.94
2022-11-28T22:53:58.451Z,101422.31
2022-11-28T22:56:26.809Z,101412.28
2022-11-28T22:58:54.558Z,101422.03
2022-11-28T23:01:25.309Z,101424.94
2022-11-28T23:03:55.245Z,101418.63
2022-11-28T23:06:25.064Z,101425.25
2022-11-28T23:08:53.299Z,101423.63
2022-11-28T23:11:23.450Z,101419.69
2022-11-28T23:13:52.608Z,101426.03
2022-11-28T23:16:22.571Z,101422.84
2022-11-28T23:18:52.753Z,101432.38
2022-11-28T23:21:23.620Z,101427.09
2022-11-28T23:23:51.723Z,101428.69
2022-11-28T23:26:20.314Z,101427.91
2022-11-28T23:28:48.282Z,101426.59
2022-11-28T23:31:18.979Z,101424.19
2022-11-28T23:33:47.352Z,101427.09
2022-11-28T23:36:16.494Z,101431.34
2022-11-28T23:38:46.885Z,101430.81
2022-11-28T23:41:15.130Z,101439.25
2022-11-28T23:43:43.383Z,101435.03
2022-11-28T23:46:12.387Z,101433.97
2022-11-28T23:48:40.619Z,101430.56
2022-11-28T23:51:08.509Z,101437.41
2022-11-28T23:53:37.139Z,101438.22
2022-11-28T23:56:08.214Z,101439.00
2022-11-28T23:58:36.119Z,101441.38
